sensor_id;sensor_type;location;lat;lon;timestamp;pressure;altitude;pressure_sealevel;temperature;humidity
46223;BME280;31943;51.410;7.564;2023-03-14T00:02:01;97829.09;;;11.27;64.07
46223;BME280;31943;51.410;7.564;2023-03-14T00:04:26;97832.59;;;11.27;64.08
46223;BME280;31943;51.410;7.564;2023-03-14T00:06:52;97836.09;;;11.26;63.92
46223;BME280;31943;51.410;7.564;2023-03-14T00:09:21;97833.47;;;11.26;63.87
46223;BME280;31943;51.410;7.564;2023-03-14T00:11:46;97829.19;;;11.25;63.68
46223;BME280;31943;51.410;7.564;2023-03-14T00:14:12;97831.69;;;11.28;64.01
46223;BME280;31943;51.410;7.564;2023-03-14T00:16:37;97817.97;;;11.22;63.95
46223;BME280;31943;51.410;7.564;2023-03-14T00:19:03;97821.28;;;11.27;64.03
46223;BME280;31943;51.410;7.564;2023-03-14T00:21:28;97824.72;;;11.29;63.81
46223;BME280;31943;51.410;7.564;2023-03-14T00:23:54;97808.28;;;11.25;63.87
46223;BME280;31943;51.410;7.564;2023-03-14T00:26:21;97817.00;;;11.24;64.00
46223;BME280;31943;51.410;7.564;2023-03-14T00:28:50;97818.78;;;11.24;63.82
46223;BME280;31943;51.410;7.564;2023-03-14T00:31:16;97831.06;;;11.20;63.85
46223;BME280;31943;51.410;7.564;2023-03-14T00:33:42;97829.41;;;11.18;64.24
46223;BME280;31943;51.410;7.564;2023-03-14T00:36:09;97842.44;;;11.19;64.04
46223;BME280;31943;51.410;7.564;2023-03-14T00:38:36;97839.75;;;11.21;64.24
46223;BME280;31943;51.410;7.564;2023-03-14T00:41:03;97853.69;;;11.21;63.98
46223;BME280;31943;51.410;7.564;2023-03-14T00:43:30;97852.78;;;11.21;64.15
46223;BME280;31943;51.410;7.564;2023-03-14T00:45:55;97857.09;;;11.23;63.85
46223;BME280;31943;51.410;7.564;2023-03-14T00:48:21;97840.63;;;11.21;63.97
46223;BME280;31943;51.410;7.564;2023-03-14T00:50:47;97833.63;;;11.22;63.93
46223;BME280;31943;51.410;7.564;2023-03-14T00:53:12;97830.97;;;11.23;63.98
46223;BME280;31943;51.410;7.564;2023-03-14T00:55:38;97826.66;;;11.22;63.87
46223;BME280;31943;51.410;7.564;2023-03-14T00:58:04;97827.59;;;11.20;64.04
46223;BME280;31943;51.410;7.564;2023-03-14T01:00:32;97823.25;;;11.20;64.20
46223;BME280;31943;51.410;7.564;2023-03-14T01:02:57;97806.69;;;11.21;64.17
46223;BME280;31943;51.410;7.564;2023-03-14T01:05:23;97801.50;;;11.20;63.71
46223;BME280;31943;51.410;7.564;2023-03-14T01:07:49;97805.75;;;11.22;63.82
46223;BME280;31943;51.410;7.564;2023-03-14T01:10:15;97800.53;;;11.22;63.86
46223;BME280;31943;51.410;7.564;2023-03-14T01:12:44;97797.78;;;11.27;63.66
46223;BME280;31943;51.410;7.564;2023-03-14T01:15:10;97802.06;;;11.30;63.49
46223;BME280;31943;51.410;7.564;2023-03-14T01:17:37;97815.09;;;11.31;63.71
46223;BME280;31943;51.410;7.564;2023-03-14T01:20:04;97817.69;;;11.31;64.15
46223;BME280;31943;51.410;7.564;2023-03-14T01:22:30;97804.69;;;11.30;63.92
46223;BME280;31943;51.410;7.564;2023-03-14T01:24:55;97807.19;;;11.33;64.07
46223;BME280;31943;51.410;7.564;2023-03-14T01:27:21;97815.09;;;11.31;64.15
46223;BME280;31943;51.410;7.564;2023-03-14T01:29:47;97819.34;;;11.34;64.50
46223;BME280;31943;51.410;7.564;2023-03-14T01:32:14;97865.66;;;11.27;65.05
46223;BME280;31943;51.410;7.564;2023-03-14T01:34:42;97893.88;;;11.16;66.16
46223;BME280;31943;51.410;7.564;2023-03-14T01:37:07;97901.19;;;11.03;67.40
46223;BME280;31943;51.410;7.564;2023-03-14T01:39:33;97907.13;;;10.78;68.83
46223;BME280;31943;51.410;7.564;2023-03-14T01:42:00;97909.34;;;10.61;68.78
46223;BME280;31943;51.410;7.564;2023-03-14T01:44:25;97914.22;;;10.42;69.14
46223;BME280;31943;51.410;7.564;2023-03-14T01:46:52;97888.44;;;10.31;69.95
46223;BME280;31943;51.410;7.564;2023-03-14T01:49:22;97862.38;;;10.31;69.96
46223;BME280;31943;51.410;7.564;2023-03-14T01:51:55;97865.88;;;10.28;69.80
46223;BME280;31943;51.410;7.564;2023-03-14T01:54:25;97865.09;;;10.25;69.71
46223;BME280;31943;51.410;7.564;2023-03-14T01:56:56;97860.66;;;10.28;69.66
46223;BME280;31943;51.410;7.564;2023-03-14T01:59:22;97862.41;;;10.28;69.54
46223;BME280;31943;51.410;7.564;2023-03-14T02:01:49;97852.94;;;10.25;69.68
46223;BME280;31943;51.410;7.564;2023-03-14T02:06:48;97827.84;;;10.21;69.68
46223;BME280;31943;51.410;7.564;2023-03-14T02:09:16;97824.47;;;10.18;69.77
46223;BME280;31943;51.410;7.564;2023-03-14T02:11:43;97828.00;;;10.15;70.04
46223;BME280;31943;51.410;7.564;2023-03-14T02:14:17;97828.06;;;10.14;70.36
46223;BME280;31943;51.410;7.564;2023-03-14T02:16:44;97835.13;;;10.08;70.47
46223;BME280;31943;51.410;7.564;2023-03-14T02:19:11;97839.53;;;10.06;70.64
46223;BME280;31943;51.410;7.564;2023-03-14T02:21:45;97828.28;;;10.04;70.68
46223;BME280;31943;51.410;7.564;2023-03-14T02:24:22;97837.81;;;10.05;70.70
46223;BME280;31943;51.410;7.564;2023-03-14T02:27:06;97831.69;;;10.08;70.75
46223;BME280;31943;51.410;7.564;2023-03-14T02:29:35;97835.34;;;10.01;70.92
46223;BME280;31943;51.410;7.564;2023-03-14T02:32:03;97836.19;;;10.01;70.96
46223;BME280;31943;51.410;7.564;2023-03-14T02:34:30;97835.25;;;10.04;70.88
46223;BME280;31943;51.410;7.564;2023-03-14T02:36:56;97828.44;;;10.00;70.83
46223;BME280;31943;51.410;7.564;2023-03-14T02:39:29;97820.50;;;10.03;70.87
46223;BME280;31943;51.410;7.564;2023-03-14T02:41:58;97824.78;;;10.05;70.93
46223;BME280;31943;51.410;7.564;2023-03-14T02:44:26;97823.81;;;10.09;70.90
46223;BME280;31943;51.410;7.564;2023-03-14T02:46:51;97823.81;;;10.09;70.96
46223;BME280;31943;51.410;7.564;2023-03-14T02:49:17;97815.91;;;10.13;71.08
46223;BME280;31943;51.410;7.564;2023-03-14T02:51:44;97812.34;;;10.15;71.07
46223;BME280;31943;51.410;7.564;2023-03-14T02:54:10;97812.47;;;10.12;70.91
46223;BME280;31943;51.410;7.564;2023-03-14T02:56:36;97811.53;;;10.13;70.62
46223;BME280;31943;51.410;7.564;2023-03-14T02:59:02;97816.75;;;10.13;70.68
46223;BME280;31943;51.410;7.564;2023-03-14T03:01:30;97810.56;;;10.17;71.08
46223;BME280;31943;51.410;7.564;2023-03-14T03:03:55;97819.38;;;10.13;71.01
46223;BME280;31943;51.410;7.564;2023-03-14T03:06:21;97821.16;;;10.11;70.81
46223;BME280;31943;51.410;7.564;2023-03-14T03:08:47;97805.63;;;10.08;70.76
46223;BME280;31943;51.410;7.564;2023-03-14T03:11:13;97810.00;;;10.07;70.72
46223;BME280;31943;51.410;7.564;2023-03-14T03:13:38;97795.28;;;10.05;70.91
46223;BME280;31943;51.410;7.564;2023-03-14T03:16:05;97790.97;;;10.04;70.45
46223;BME280;31943;51.410;7.564;2023-03-14T03:18:32;97792.78;;;10.02;70.77
46223;BME280;31943;51.410;7.564;2023-03-14T03:21:00;97795.38;;;10.02;70.91
46223;BME280;31943;51.410;7.564;2023-03-14T03:23:26;97791.97;;;10.00;70.94
46223;BME280;31943;51.410;7.564;2023-03-14T03:25:51;97785.97;;;9.96;70.71
46223;BME280;31943;51.410;7.564;2023-03-14T03:28:17;97795.41;;;10.00;70.79
46223;BME280;31943;51.410;7.564;2023-03-14T03:30:43;97783.22;;;10.01;71.07
46223;BME280;31943;51.410;7.564;2023-03-14T03:33:09;97782.41;;;9.99;71.05
46223;BME280;31943;51.410;7.564;2023-03-14T03:35:41;97789.28;;;10.01;70.87
46223;BME280;31943;51.410;7.564;2023-03-14T03:38:07;97784.03;;;10.03;70.77
46223;BME280;31943;51.410;7.564;2023-03-14T03:40:33;97775.38;;;10.02;71.04
46223;BME280;31943;51.410;7.564;2023-03-14T03:42:58;97777.97;;;10.02;70.99
46223;BME280;31943;51.410;7.564;2023-03-14T03:45:24;97770.16;;;10.02;71.06
46223;BME280;31943;51.410;7.564;2023-03-14T03:47:50;97764.16;;;10.00;71.08
46223;BME280;31943;51.410;7.564;2023-03-14T03:50:16;97763.22;;;10.01;71.00
46223;BME280;31943;51.410;7.564;2023-03-14T03:52:43;97759.63;;;10.05;70.72
46223;BME280;31943;51.410;7.564;2023-03-14T03:55:09;97752.56;;;10.10;70.66
46223;BME280;31943;51.410;7.564;2023-03-14T03:57:34;97761.19;;;10.13;70.63
46223;BME280;31943;51.410;7.564;2023-03-14T04:00:01;97762.91;;;10.14;70.84
46223;BME280;31943;51.410;7.564;2023-03-14T04:02:27;97769.91;;;10.12;70.64
46223;BME280;31943;51.410;7.564;2023-03-14T04:04:52;97777.63;;;10.15;70.71
46223;BME280;31943;51.410;7.564;2023-03-14T04:07:18;97779.44;;;10.13;70.99
46223;BME280;31943;51.410;7.564;2023-03-14T04:09:46;97795.09;;;10.11;70.96
46223;BME280;31943;51.410;7.564;2023-03-14T04:12:12;97793.47;;;10.07;71.14
46223;BME280;31943;51.410;7.564;2023-03-14T04:14:37;97777.34;;;9.94;71.65
46223;BME280;31943;51.410;7.564;2023-03-14T04:17:03;97794.16;;;9.82;72.19
46223;BME280;31943;51.410;7.564;2023-03-14T04:19:29;97791.66;;;9.78;72.40
46223;BME280;31943;51.410;7.564;2023-03-14T04:21:54;97796.91;;;9.76;72.57
46223;BME280;31943;51.410;7.564;2023-03-14T04:24:20;97790.34;;;9.61;73.26
46223;BME280;31943;51.410;7.564;2023-03-14T04:26:47;97784.44;;;9.55;74.11
46223;BME280;31943;51.410;7.564;2023-03-14T04:29:13;97780.34;;;9.44;74.23
46223;BME280;31943;51.410;7.564;2023-03-14T04:31:39;97785.53;;;9.46;74.14
46223;BME280;31943;51.410;7.564;2023-03-14T04:34:04;97775.91;;;9.49;74.03
46223;BME280;31943;51.410;7.564;2023-03-14T04:36:30;97771.50;;;9.52;73.98
46223;BME280;31943;51.410;7.564;2023-03-14T04:38:55;97763.75;;;9.48;74.10
46223;BME280;31943;51.410;7.564;2023-03-14T04:41:22;97758.47;;;9.52;74.16
46223;BME280;31943;51.410;7.564;2023-03-14T04:43:49;97748.88;;;9.54;74.40
46223;BME280;31943;51.410;7.564;2023-03-14T04:46:14;97741.88;;;9.56;74.22
46223;BME280;31943;51.410;7.564;2023-03-14T04:48:40;97740.88;;;9.61;74.71
46223;BME280;31943;51.410;7.564;2023-03-14T04:51:06;97737.25;;;9.67;74.39
46223;BME280;31943;51.410;7.564;2023-03-14T04:53:35;97734.66;;;9.67;74.73
46223;BME280;31943;51.410;7.564;2023-03-14T04:56:05;97743.97;;;9.76;74.62
46223;BME280;31943;51.410;7.564;2023-03-14T04:58:31;97731.63;;;9.82;74.43
46223;BME280;31943;51.410;7.564;2023-03-14T05:01:03;97719.25;;;9.90;74.38
46223;BME280;31943;51.410;7.564;2023-03-14T05:03:29;97713.13;;;9.92;74.04
46223;BME280;31943;51.410;7.564;2023-03-14T05:05:55;97709.53;;;9.96;74.07
46223;BME280;31943;51.410;7.564;2023-03-14T05:08:20;97700.69;;;10.01;74.32
46223;BME280;31943;51.410;7.564;2023-03-14T05:10:52;97699.00;;;10.00;73.90
46223;BME280;31943;51.410;7.564;2023-03-14T05:13:18;97692.03;;;10.01;74.24
46223;BME280;31943;51.410;7.564;2023-03-14T05:15:43;97682.47;;;10.01;74.13
46223;BME280;31943;51.410;7.564;2023-03-14T05:18:11;97692.19;;;9.96;73.97
46223;BME280;31943;51.410;7.564;2023-03-14T05:20:37;97688.84;;;9.91;73.96
46223;BME280;31943;51.410;7.564;2023-03-14T05:23:03;97680.31;;;9.86;74.45
46223;BME280;31943;51.410;7.564;2023-03-14T05:25:28;97691.69;;;9.82;74.38
46223;BME280;31943;51.410;7.564;2023-03-14T05:27:54;97691.69;;;9.82;74.27
46223;BME280;31943;51.410;7.564;2023-03-14T05:30:22;97681.41;;;9.77;74.33
46223;BME280;31943;51.410;7.564;2023-03-14T05:32:48;97675.38;;;9.77;74.27
46223;BME280;31943;51.410;7.564;2023-03-14T05:35:17;97675.25;;;9.80;74.11
46223;BME280;31943;51.410;7.564;2023-03-14T05:37:45;97674.44;;;9.78;74.38
46223;BME280;31943;51.410;7.564;2023-03-14T05:40:11;97663.19;;;9.77;73.99
46223;BME280;31943;51.410;7.564;2023-03-14T05:42:37;97680.44;;;9.81;74.03
46223;BME280;31943;51.410;7.564;2023-03-14T05:45:10;97678.69;;;9.82;73.96
46223;BME280;31943;51.410;7.564;2023-03-14T05:47:39;97672.75;;;9.77;74.21
46223;BME280;31943;51.410;7.564;2023-03-14T05:50:06;97673.59;;;9.77;74.22
46223;BME280;31943;51.410;7.564;2023-03-14T05:52:37;97665.66;;;9.82;73.96
46223;BME280;31943;51.410;7.564;2023-03-14T05:55:04;97673.56;;;9.79;74.14
46223;BME280;31943;51.410;7.564;2023-03-14T05:57:33;97677.97;;;9.77;73.99
46223;BME280;31943;51.410;7.564;2023-03-14T05:59:59;97668.50;;;9.74;74.41
46223;BME280;31943;51.410;7.564;2023-03-14T06:02:25;97670.19;;;9.75;74.10
46223;BME280;31943;51.410;7.564;2023-03-14T06:04:50;97669.31;;;9.76;74.32
46223;BME280;31943;51.410;7.564;2023-03-14T06:07:17;97664.09;;;9.76;74.22
46223;BME280;31943;51.410;7.564;2023-03-14T06:09:44;97677.13;;;9.76;74.03
46223;BME280;31943;51.410;7.564;2023-03-14T06:12:10;97671.03;;;9.76;74.30
46223;BME280;31943;51.410;7.564;2023-03-14T06:14:36;97662.34;;;9.77;74.18
46223;BME280;31943;51.410;7.564;2023-03-14T06:17:01;97666.63;;;9.78;74.36
46223;BME280;31943;51.410;7.564;2023-03-14T06:19:27;97671.78;;;9.81;74.51
46223;BME280;31943;51.410;7.564;2023-03-14T06:21:53;97675.13;;;9.86;74.29
46223;BME280;31943;51.410;7.564;2023-03-14T06:24:18;97677.78;;;9.83;74.34
46223;BME280;31943;51.410;7.564;2023-03-14T06:26:46;97663.91;;;9.82;74.27
46223;BME280;31943;51.410;7.564;2023-03-14T06:29:11;97666.53;;;9.82;74.71
46223;BME280;31943;51.410;7.564;2023-03-14T06:31:37;97664.72;;;9.84;74.24
46223;BME280;31943;51.410;7.564;2023-03-14T06:34:02;97660.38;;;9.85;74.62
46223;BME280;31943;51.410;7.564;2023-03-14T06:36:28;97669.97;;;9.83;74.59
46223;BME280;31943;51.410;7.564;2023-03-14T06:38:53;97668.19;;;9.85;74.52
46223;BME280;31943;51.410;7.564;2023-03-14T06:41:19;97671.59;;;9.87;74.32
46223;BME280;31943;51.410;7.564;2023-03-14T06:43:46;97668.16;;;9.86;74.08
46223;BME280;31943;51.410;7.564;2023-03-14T06:46:12;97666.38;;;9.87;74.30
46223;BME280;31943;51.410;7.564;2023-03-14T06:48:38;97662.09;;;9.86;74.31
46223;BME280;31943;51.410;7.564;2023-03-14T06:51:04;97671.59;;;9.87;74.40
46223;BME280;31943;51.410;7.564;2023-03-14T06:53:30;97668.84;;;9.92;74.20
46223;BME280;31943;51.410;7.564;2023-03-14T06:55:55;97664.59;;;9.89;74.19
46223;BME280;31943;51.410;7.564;2023-03-14T06:58:21;97677.81;;;9.81;74.11
46223;BME280;31943;51.410;7.564;2023-03-14T07:00:48;97668.19;;;9.85;74.21
46223;BME280;31943;51.410;7.564;2023-03-14T07:03:17;97665.44;;;9.89;73.98
46223;BME280;31943;51.410;7.564;2023-03-14T07:05:42;97672.22;;;9.95;73.89
46223;BME280;31943;51.410;7.564;2023-03-14T07:08:08;97672.97;;;10.00;73.75
46223;BME280;31943;51.410;7.564;2023-03-14T07:10:34;97679.81;;;10.03;73.96
46223;BME280;31943;51.410;7.564;2023-03-14T07:13:04;97680.81;;;9.99;73.82
46223;BME280;31943;51.410;7.564;2023-03-14T07:15:30;97687.88;;;9.94;73.94
46223;BME280;31943;51.410;7.564;2023-03-14T07:17:58;97688.84;;;9.91;73.82
46223;BME280;31943;51.410;7.564;2023-03-14T07:20:24;97687.84;;;9.95;73.97
46223;BME280;31943;51.410;7.564;2023-03-14T07:22:53;97695.66;;;9.95;74.39
46223;BME280;31943;51.410;7.564;2023-03-14T07:25:22;97699.13;;;9.96;74.17
46223;BME280;31943;51.410;7.564;2023-03-14T07:27:47;97701.63;;;10.00;74.25
46223;BME280;31943;51.410;7.564;2023-03-14T07:30:27;97705.75;;;10.07;74.12
46223;BME280;31943;51.410;7.564;2023-03-14T07:32:52;97712.63;;;10.10;74.40
46223;BME280;31943;51.410;7.564;2023-03-14T07:35:22;97702.28;;;10.07;74.28
46223;BME280;31943;51.410;7.564;2023-03-14T07:37:49;97702.22;;;10.10;74.19
46223;BME280;31943;51.410;7.564;2023-03-14T07:40:15;97705.66;;;10.10;74.13
46223;BME280;31943;51.410;7.564;2023-03-14T07:42:41;97700.47;;;10.09;74.03
46223;BME280;31943;51.410;7.564;2023-03-14T07:45:08;97697.09;;;10.05;74.23
46223;BME280;31943;51.410;7.564;2023-03-14T07:47:35;97696.97;;;10.12;74.24
46223;BME280;31943;51.410;7.564;2023-03-14T07:50:01;97693.25;;;10.19;73.66
46223;BME280;31943;51.410;7.564;2023-03-14T07:52:30;97704.44;;;10.22;73.67
46223;BME280;31943;51.410;7.564;2023-03-14T07:54:56;97701.75;;;10.25;73.84
46223;BME280;31943;51.410;7.564;2023-03-14T07:57:23;97699.00;;;10.32;73.58
46223;BME280;31943;51.410;7.564;2023-03-14T07:59:52;97704.91;;;10.37;73.38
46223;BME280;31943;51.410;7.564;2023-03-14T08:02:18;97709.09;;;10.42;73.59
46223;BME280;31943;51.410;7.564;2023-03-14T08:04:45;97715.06;;;10.46;73.60
46223;BME280;31943;51.410;7.564;2023-03-14T08:07:12;97716.91;;;10.42;73.70
46223;BME280;31943;51.410;7.564;2023-03-14T08:09:40;97712.47;;;10.46;73.71
46223;BME280;31943;51.410;7.564;2023-03-14T08:12:07;97713.31;;;10.46;73.86
46223;BME280;31943;51.410;7.564;2023-03-14T08:14:34;97717.78;;;10.43;73.54
46223;BME280;31943;51.410;7.564;2023-03-14T08:17:00;97717.78;;;10.43;74.00
46223;BME280;31943;51.410;7.564;2023-03-14T08:19:25;97717.56;;;10.51;73.66
46223;BME280;31943;51.410;7.564;2023-03-14T08:21:53;97718.28;;;10.54;73.63
46223;BME280;31943;51.410;7.564;2023-03-14T08:24:19;97718.06;;;10.62;73.74
46223;BME280;31943;51.410;7.564;2023-03-14T08:26:52;97721.16;;;10.75;73.39
46223;BME280;31943;51.410;7.564;2023-03-14T08:29:21;97721.00;;;10.79;73.74
46223;BME280;31943;51.410;7.564;2023-03-14T08:31:46;97714.81;;;10.82;73.36
46223;BME280;31943;51.410;7.564;2023-03-14T08:34:12;97725.97;;;10.87;73.37
46223;BME280;31943;51.410;7.564;2023-03-14T08:36:41;97726.59;;;10.95;73.15
46223;BME280;31943;51.410;7.564;2023-03-14T08:39:06;97721.53;;;10.91;73.45
46223;BME280;31943;51.410;7.564;2023-03-14T08:41:33;97721.63;;;10.87;73.07
46223;BME280;31943;51.410;7.564;2023-03-14T08:44:11;97724.22;;;10.87;73.48
46223;BME280;31943;51.410;7.564;2023-03-14T08:46:37;97731.97;;;10.91;73.63
46223;BME280;31943;51.410;7.564;2023-03-14T08:49:02;97738.06;;;10.89;73.63
46223;BME280;31943;51.410;7.564;2023-03-14T08:51:30;97730.31;;;10.88;73.48
46223;BME280;31943;51.410;7.564;2023-03-14T08:54:18;97730.06;;;10.96;73.61
46223;BME280;31943;51.410;7.564;2023-03-14T08:56:43;97736.19;;;10.95;73.32
46223;BME280;31943;51.410;7.564;2023-03-14T08:59:15;97733.00;;;10.85;73.49
46223;BME280;31943;51.410;7.564;2023-03-14T09:01:44;97731.34;;;10.82;73.52
46223;BME280;31943;51.410;7.564;2023-03-14T09:04:10;97746.13;;;10.82;73.72
46223;BME280;31943;51.410;7.564;2023-03-14T09:06:37;97733.00;;;10.85;73.81
46223;BME280;31943;51.410;7.564;2023-03-14T09:09:03;97733.00;;;10.85;73.63
46223;BME280;31943;51.410;7.564;2023-03-14T09:11:29;97737.22;;;10.89;73.76
46223;BME280;31943;51.410;7.564;2023-03-14T09:13:54;97734.47;;;10.94;73.69
46223;BME280;31943;51.410;7.564;2023-03-14T09:16:21;97735.94;;;11.02;73.91
46223;BME280;31943;51.410;7.564;2023-03-14T09:18:47;97730.44;;;11.12;73.35
46223;BME280;31943;51.410;7.564;2023-03-14T09:21:13;97734.66;;;11.16;73.16
46223;BME280;31943;51.410;7.564;2023-03-14T09:23:39;97738.94;;;11.17;73.27
46223;BME280;31943;51.410;7.564;2023-03-14T09:26:05;97736.22;;;11.21;73.24
46223;BME280;31943;51.410;7.564;2023-03-14T09:28:30;97737.69;;;11.28;73.02
46223;BME280;31943;51.410;7.564;2023-03-14T09:30:56;97745.47;;;11.30;73.13
46223;BME280;31943;51.410;7.564;2023-03-14T09:33:23;97748.88;;;11.32;73.25
46223;BME280;31943;51.410;7.564;2023-03-14T09:35:49;97753.25;;;11.32;73.36
46223;BME280;31943;51.410;7.564;2023-03-14T09:38:15;97750.09;;;11.22;73.00
46223;BME280;31943;51.410;7.564;2023-03-14T09:40:41;97751.00;;;11.21;73.11
46223;BME280;31943;51.410;7.564;2023-03-14T09:43:09;97753.59;;;11.21;73.17
46223;BME280;31943;51.410;7.564;2023-03-14T09:45:39;97760.75;;;11.16;73.04
46223;BME280;31943;51.410;7.564;2023-03-14T09:48:05;97762.69;;;11.09;73.32
46223;BME280;31943;51.410;7.564;2023-03-14T09:50:39;97760.28;;;11.03;73.65
46223;BME280;31943;51.410;7.564;2023-03-14T09:53:09;97764.81;;;10.98;73.87
46223;BME280;31943;51.410;7.564;2023-03-14T09:55:37;97785.19;;;10.85;73.43
46223;BME280;31943;51.410;7.564;2023-03-14T09:58:08;97790.63;;;10.77;73.72
46223;BME280;31943;51.410;7.564;2023-03-14T10:00:35;97811.72;;;10.69;74.02
46223;BME280;31943;51.410;7.564;2023-03-14T10:03:21;97824.16;;;10.61;73.96
46223;BME280;31943;51.410;7.564;2023-03-14T10:05:50;97872.66;;;10.67;73.28
46223;BME280;31943;51.410;7.564;2023-03-14T10:08:15;97877.69;;;10.43;70.94
46223;BME280;31943;51.410;7.564;2023-03-14T10:10:41;97892.44;;;10.10;70.78
46223;BME280;31943;51.410;7.564;2023-03-14T10:13:14;97894.63;;;9.91;71.23
46223;BME280;31943;51.410;7.564;2023-03-14T10:15:41;97903.47;;;9.84;70.79
46223;BME280;31943;51.410;7.564;2023-03-14T10:18:11;97916.84;;;9.70;71.09
46223;BME280;31943;51.410;7.564;2023-03-14T10:20:39;97929.47;;;9.51;71.30
46223;BME280;31943;51.410;7.564;2023-03-14T10:23:22;97952.31;;;9.37;71.37
46223;BME280;31943;51.410;7.564;2023-03-14T10:26:00;97970.06;;;9.19;72.22
46223;BME280;31943;51.410;7.564;2023-03-14T10:28:30;97978.94;;;9.09;72.55
46223;BME280;31943;51.410;7.564;2023-03-14T10:31:03;97981.50;;;9.10;72.85
46223;BME280;31943;51.410;7.564;2023-03-14T10:33:31;98003.44;;;8.97;72.99
46223;BME280;31943;51.410;7.564;2023-03-14T10:35:59;98006.06;;;8.96;72.54
46223;BME280;31943;51.410;7.564;2023-03-14T10:38:28;98011.31;;;8.94;73.04
46223;BME280;31943;51.410;7.564;2023-03-14T10:40:55;98027.06;;;8.88;72.65
46223;BME280;31943;51.410;7.564;2023-03-14T10:45:52;98033.81;;;8.97;73.22
46223;BME280;31943;51.410;7.564;2023-03-14T10:48:21;98042.47;;;8.97;73.00
46223;BME280;31943;51.410;7.564;2023-03-14T10:50:49;98065.03;;;8.95;73.03
46223;BME280;31943;51.410;7.564;2023-03-14T10:53:17;98059.91;;;8.92;72.86
46223;BME280;31943;51.410;7.564;2023-03-14T10:55:45;98085.94;;;8.90;72.89
46223;BME280;31943;51.410;7.564;2023-03-14T10:58:26;98103.56;;;8.76;72.00
46223;BME280;31943;51.410;7.564;2023-03-14T11:01:09;98122.88;;;8.60;72.76
46223;BME280;31943;51.410;7.564;2023-03-14T11:03:43;98132.56;;;8.48;72.26
46223;BME280;31943;51.410;7.564;2023-03-14T11:06:19;98147.56;;;8.29;72.01
46223;BME280;31943;51.410;7.564;2023-03-14T11:08:49;98155.47;;;8.23;72.49
46223;BME280;31943;51.410;7.564;2023-03-14T11:11:23;98175.41;;;8.21;72.71
46223;BME280;31943;51.410;7.564;2023-03-14T11:13:57;98186.75;;;8.14;73.10
46223;BME280;31943;51.410;7.564;2023-03-14T11:16:31;98188.59;;;8.06;73.49
46223;BME280;31943;51.410;7.564;2023-03-14T11:19:20;98211.94;;;8.07;73.23
46223;BME280;31943;51.410;7.564;2023-03-14T11:21:54;98225.81;;;8.05;72.47
46223;BME280;31943;51.410;7.564;2023-03-14T11:24:35;98241.50;;;7.96;71.47
46223;BME280;31943;51.410;7.564;2023-03-14T11:27:09;98246.88;;;7.82;70.39
46223;BME280;31943;51.410;7.564;2023-03-14T11:29:43;98257.38;;;7.69;70.55
46223;BME280;31943;51.410;7.564;2023-03-14T11:32:15;98272.13;;;7.64;71.57
46223;BME280;31943;51.410;7.564;2023-03-14T11:34:48;98276.47;;;7.64;70.44
46223;BME280;31943;51.410;7.564;2023-03-14T11:37:21;98296.44;;;7.59;70.78
46223;BME280;31943;51.410;7.564;2023-03-14T11:39:54;98299.13;;;7.46;70.40
46223;BME280;31943;51.410;7.564;2023-03-14T11:42:23;98327.75;;;7.39;70.39
46223;BME280;31943;51.410;7.564;2023-03-14T11:44:50;98330.38;;;7.34;70.43
46223;BME280;31943;51.410;7.564;2023-03-14T11:47:17;98337.34;;;7.27;69.62
46223;BME280;31943;51.410;7.564;2023-03-14T11:49:48;98341.66;;;7.28;69.19
46223;BME280;31943;51.410;7.564;2023-03-14T11:52:19;98373.72;;;7.18;69.09
46223;BME280;31943;51.410;7.564;2023-03-14T11:54:48;98380.75;;;7.04;68.25
46223;BME280;31943;51.410;7.564;2023-03-14T11:57:17;98381.59;;;7.04;67.62
46223;BME280;31943;51.410;7.564;2023-03-14T11:59:50;98375.53;;;7.05;68.47
46223;BME280;31943;51.410;7.564;2023-03-14T12:02:22;98391.13;;;6.99;68.33
46223;BME280;31943;51.410;7.564;2023-03-14T12:05:14;98420.56;;;6.90;68.18
46223;BME280;31943;51.410;7.564;2023-03-14T12:07:49;98416.34;;;6.72;67.09
46223;BME280;31943;51.410;7.564;2023-03-14T12:10:28;98427.56;;;6.64;67.71
46223;BME280;31943;51.410;7.564;2023-03-14T12:12:55;98448.31;;;6.64;67.96
46223;BME280;31943;51.410;7.564;2023-03-14T12:15:23;98453.53;;;6.61;68.12
46223;BME280;31943;51.410;7.564;2023-03-14T12:17:53;98455.22;;;6.63;68.34
46223;BME280;31943;51.410;7.564;2023-03-14T12:20:21;98459.50;;;6.75;68.04
46223;BME280;31943;51.410;7.564;2023-03-14T12:22:49;98472.47;;;6.72;67.32
46223;BME280;31943;51.410;7.564;2023-03-14T12:25:18;98475.94;;;6.68;66.04
46223;BME280;31943;51.410;7.564;2023-03-14T12:28:04;98487.22;;;6.58;66.37
46223;BME280;31943;51.410;7.564;2023-03-14T12:30:33;98495.84;;;6.53;66.85
46223;BME280;31943;51.410;7.564;2023-03-14T12:33:11;98513.16;;;6.45;67.26
46223;BME280;31943;51.410;7.564;2023-03-14T12:35:39;98526.13;;;6.39;67.98
46223;BME280;31943;51.410;7.564;2023-03-14T12:38:09;98546.81;;;6.34;65.91
46223;BME280;31943;51.410;7.564;2023-03-14T12:40:39;98538.22;;;6.28;66.10
46223;BME280;31943;51.410;7.564;2023-03-14T12:43:25;98533.88;;;6.38;66.68
46223;BME280;31943;51.410;7.564;2023-03-14T12:46:15;98538.19;;;6.59;65.73
46223;BME280;31943;51.410;7.564;2023-03-14T12:48:45;98540.78;;;6.65;64.99
46223;BME280;31943;51.410;7.564;2023-03-14T12:51:13;98553.69;;;6.76;64.07
46223;BME280;31943;51.410;7.564;2023-03-14T12:53:55;98567.53;;;6.82;64.54
46223;BME280;31943;51.410;7.564;2023-03-14T12:56:32;98568.31;;;7.01;64.61
46223;BME280;31943;51.410;7.564;2023-03-14T12:59:30;98563.09;;;7.17;64.18
46223;BME280;31943;51.410;7.564;2023-03-14T13:02:00;98568.25;;;7.32;64.59
46223;BME280;31943;51.410;7.564;2023-03-14T13:04:33;98574.25;;;7.43;63.15
46223;BME280;31943;51.410;7.564;2023-03-14T13:07:00;98586.34;;;7.44;62.82
46223;BME280;31943;51.410;7.564;2023-03-14T13:10:18;98591.56;;;7.37;62.58
46223;BME280;31943;51.410;7.564;2023-03-14T13:12:48;98596.78;;;7.33;62.87
46223;BME280;31943;51.410;7.564;2023-03-14T13:15:19;98600.22;;;7.31;63.59
46223;BME280;31943;51.410;7.564;2023-03-14T13:17:48;98607.13;;;7.38;64.22